RESULTADOS - AGOSTO 10, 2003
Temperatura 79-80F 26-27C  Humedad Relativa 92-95%  Lluvia
Puesto            
Absoluto   Categoria No. Nombre Pais Edad

Tiempo  

   Premio

1   1 18-39 1 Henry Jaen Cuba

26

2:24:49

   $3,000

2   2 18-39 7 Johnny Loria Costa Rica 29 2:29:34    $2,000
3   1 40-49 6 Andrei Kouznetsov Rusia 45 2:31:28    $1,000
4   3 18-39 292 Peter Ontabo Kenia 30 2:32:01       $600
5   4 18-39 233 Carlos Villafrades Colombia 34 2:32:52       $500
6   2 40-49 164 Edilberto Rivera M. Colombia 40 2:34:08       $600
7   5 18-39 10 Luis Cruz Colombia 35 2:34:28       $400
8   3 40-49 84 Miguel Angel Vargas Costa Rica 45 2:36:55       $500
9   4 40-49 9 Guillermo Ramirez Panamá 40 2:43:13    $1,150
10   6 18-39 137 José Santana Panamá 34 2:47:08       $900
11   7 18-39 19 Nicolas Garcia Panamá 35 2:50:31       $600
12   8 18-39 55 Nelson Piedra Panamá 32 2:52:49       $400
13   5 40-49 208 Eduardo Rosello Costa Rica 40 2:54:15       $300
14   9 18-39 11 Ovidio Capen Guatemala 30 2:54:34  
15   6 40-49 128 Gilberto Brenes Costa Rica 44 2:57:51       $250
16   10 18-39 93 Rene Guerra Panamá 39 2:59:19       $300
17   1 50+ 20 Edgardo Miranda Panamá 51 3:00:01    $1,000
18   11 18-39 74 Rafael Diaz Panamá 38 3:00:38  
19   12 18-39 87 Miguel Angel Toruño Panamá 22 3:01:07  
20   13 18-39 226 Diego Coronado Panamá 28 3:02:58      $200
21   14 18-39 182 Carlos Delgado Panamá 38 3:04:16  
22   2 50+ 68 Pastor Perea Panamá 52 3:04:52      $800
23   7 40-49 64 Ricardo Concepción Panamá 44 3:04:58      $600
24   15 18-39 193 German D. Roman B. Costa Rica 34 3:05:37  
25   16 18-39 154 Omar L. Quiros C. Costa Rica 38 3:05:55  
26   3 50+ 198 Heriberto Soto Costa Rica 51 3:06:25      $400
27   17 18-39 188 Adalberto Jovani Panamá 35 3:06:43  
28   4 50+ 130 Jorge Enrique Ramirez. Costa Rica 56 3:07:25  
29   18 18-39 150 Abdiel Cianca Panamá 38 3:09:10  
30   8 40-49 249 Marco Venicio Segura Costa Rica 45 3:09:25      $150
31   19 18-39 162 Saul Ignacio Pelaez Colombia 33 3:09:51  
32   9 40-49 66 Jose Camaño Panamá 46 3:11:07      $400
33   10 40-49 247 Raul Castro Panamá 41 3:11:40      $200
34   20 18-39 49 Antonio Gonzalez Panamá 29 3:14:52  
35   11 40-49 39 Moises Barragan Panamá 48 3:16:00      $150
36   21 18-39 88 Jaime Quintanillo Nicaragua 32 3:16:18  
37   12 40-49 65 Manuel Camaño Panamá 48 3:16:58      $100
38   13 40-49 123 Guillermo Toruño Panamá 40 3:17:19        $75
39   5 50+ 169 Edmundo Andrion Panamá 53 3:17:48      $200
40 F 1 40-49F 248 Josefina Delgado Costa Rica 40 3:18:33      $2,000
41 F 2 40-49F 113 Margarita Conde Guatemala 43 3:19:22      $1,000
42   14 40-49 237 Pedro E. Rivera Panamá 44 3:19:55        $50
43 F 1 18-39F 98 Margaret Flores Costa Rica 36 3:23:40      $500
44   22 18-39 85 Ernesto Sanchez Costa Rica 36 3:25:30  
45   16 40-49 245 Maximo Ballesteros Panamá 44 3:25:43  
46   23 18-39 119 Bruno Ramos Panamá 37 3:26:43  
47 F 3 40-49F 8 Gilda Mendez Panamá 42 3:27:00      $900
48   17 40-49 205 Rudy Sotelo Costa Rica 42 3:27:04  
49   18 40-49 75 Nicolas Coronado Panamá 47 3:27:13  
50   24 18-39 91 Rodrigo Salinas Nicaragua 28 3:28:16  

 

51   19 40-49 127 Martín Coto Quiróz Costa Rica 44 3:28:52  
52   6 50+ 294 Gil Balbuena Panamá 54 3:28:56  
53   25 18-39 204 Jose A. Ramos Panamá 29 3:29:34  
54   26 18-39 201 Carlos Alberto Ramirez Costa Rica 37 3:31:33  
55   21 40-49 151 Adolfo Villamonte P. Panamá 42 3:31:48  
56 F 4 40-49F 83 Sonia Rojas Romero Costa Rica 41 3:32:08 $300
57   7 50+ 69 Jose Sousa Panamá 53 3:32:37  
58   22 40-49 132 Lorenzo Moreno Panamá 44 3:32:40  
59   27 18-39 60 Auristo Valdespino Panamá 29 3:33:16  
60  

28

18-39 291 Francisco Torrero Panamá

33

3:33:45  
61   23 40-49 146 José L. Cianca Panamá 47 3:34:07  
62   8 50+ 18 Anselmo Broce Panamá 50 3:34:36  
63   29 18-39 77 José Sanchez Panamá 34 3:35:37  
64   9 50+ 32 Georgio Rebuha Venezuela 55 3:35:48  
65   30 18-39 23 Richard McCabe Canada 35 3:35:56  
66   31 18-39 238 Carlos Becerra Panamá 38 3:36:07  
67 F 2 18-39F 112 Angelina Turcio Guatemala 35 3:36:23 $400
68   10 50+ 191 Marcos Solano G. Costa Rica 55 3:37:13  
69   32 18-39 168 Javier Araya A. Costa Rica 37 3:38:00  
70   33 18-39 56 Gianclaudio Lopolito Panamá 33 3:38:03  
71 F 5 40-49F 202 Martha Cordero Costa Rica 47 3:38:07 $200
72   24 40-49 161 Manuel Alvarez Panamá 44 3:38:26  
73 F 3 18-39F 37 Loren Miranda Panamá 37 3:40:58 $700
74   25 40-49 141 Maximo Moran Panamá 44 3:41:01  
75   34 18-39 258 Jolan Castillo Panamá 29 3:42:18  
76   11 50+ 155 Luis Gerardo Pereira Costa Rica 53 3:43:08  
77   12 50+ 109 Miguel Lopez USA 51 3:43:46  
78 F 6 40-49F 242 Luisa Barrantes Costa Rica 42 3:44:07 $150
79   13 50+ 232 Guillermo  Guzman C. Costa Rica 57 3:44:37  
80   26 40-49 206 Arturo Santizo Panamá 44 3:44:55  
81 F 1 50+F 200 Maritza Martinez Costa Rica 51 3:45:16 $200
82   14 50+ 92 Enrique Hernandez Nicaragua 51 3:47:21  
83   27 40-49 250 José Ortiz Panamá 44 3:47:48  
84   35 18-39 214 Luis Lanza Panamá 23 3:50:01  
85   15 50+ 101 Luis Lay Panamá 60 3:50:06  
86   36 18-39 177 Raúl Calvo Costa Rica 35 3:50:49  
87       174 Braulio Wing Panamá 17 3:52:40  
88   37 18-39 260 Eric Ariza Panamá 30 3:53:00  
89   28 40-49 79 Mario Caliendo Panamá 47 3:53:04  
90   29 40-49 153 Orlando Valdes Panamá 40 3:53:22  
91   16 50+ 95 Jose A. Fernandez Panamá 51 3:53:34  
92   17 50+ 185 Roberto Rodriguez Panamá 50 3:53:58  
93 F 4 18-39F 86 Maureen Cornejo Costa Rica 30 3:54:10 $200
94   38 18-39 125 José Ramón Marenco V. Costa Rica 38 3:54:11  
95   39 18-39 149 Juan de Dios Henriquez Panamá 37 3:54:28  
96   18 50+ 230 Amado Madrigal S. Costa Rica 61 3:56:07  
97   30 40-49 61 Mario Herrera Panamá 44 3:56:28  
98 F 5 18-39F 116 Whitney Trainor USA 24 3:56:46 $150
99   40 18-39 76 William León M. Colombia 35 3:57:01  
100   41 18-39 241 Juan Pineda Panamá 35 3:57:03  

 

 

 

 

101   19 50+ 120 Carlos De Gracia Panamá 50 3:57:55  
102   20 50+ 103 Rodrigo Espinosa Panamá 54 3:59:41  
103 F 6 18-39F 30 Ana Marcia Borges G. Brasil 34 4:00:22 $100
104   31 40-49 114 Elmer Ortiz Panamá 40 4:00:28  
105   42 18-39 58 Camilo Amado Panamá 36 4:00:40  
106   32 40-49 211 Rigoberto Castillito Panamá 45 4:02:16  
107   21 50+ 143 Alfonso Perez Panamá 52 4:02:21  
108   33 40-49 80 Jorge Lombardo Panamá 44 4:03:48  
109   43 18-39 96 Pablo Testa Panamá 35 4:05:00  
110   44 18-39 167 José Orillac Panamá 31 4:05:04  
111 F 7 40-49F 134 Eira Hurtado Panamá 40 4:05:10 $300
112   45 18-39 35 Luis Menendez G. Panamá 34 4:05:26  
113   22 50+ 21 Edson L. Sanches USA 53 4:05:43  
114   46 18-39 148 Agustin Diaz Panamá 37 4:06:16  
115   23 50+ 147 Diogenes Sarate Q. Panamá 50 4:06:19  
116 F 8 40-49F 124 Cirza Rodriguez Panamá 49 4:06:52 $200
117   47 18-39 196 Gerardo Guzman Costa Rica 35 4:07:07  
118   34 40-49 170 Reymar Badiola Panamá 44 4:08:04  
119   35 40-49 159 Bienvenido Chavarria C. Panamá 46 4:08:13  
120   37 40-49 136 Francisco Perez M. Costa Rica 40 4:09:19  
121   38 40-49 57 Carlos Martans Panamá 43 4:09:46  
122 F 7 18-39F 224 Melvis A. De Coronado Panamá 28 4:10:19 $200
123   38 40-49 239 Aramis Mora Panamá 44 4:10:49  
124   39 40-49 189 Alberto Salazar Costa Rica 43 4:12:40  
125 F 8 18-39F 117 Sara Hernandez Panamá 27 4:13:13 $150
126   48 18-39 144 Mario Serracin Panamá 36 4:13:25  
127   40 40-49 70 Pedro Villamil Colombia 47 4:13:28  
128 F 9 18-39F 139 Catalina Loria R. Costa Rica 39 4:13:53  
129   49 18-39 175 Rene Van Hoorde Panamá 34 4:14:40  
130   24 50+ 192 Joel F. Stewart Costa Rica 54 4:15:31  
131   41 40-49 227 Leonel Valerin Costa Rica 47 4:15:49  
132   50 18-39 240 Jovani Rodriguez Panamá 31 4:16:04  
133   25 50+ 253 Hilario Barria Panamá 59 4:16:10  
134   51 18-39 110 José Luis Atencio Panamá 33 4:16:28  
135   26 50+ 217 Lezcano Ureña Panamá 52 4:16:42  
136   52 18-39 195 Fernando Gomez S. Costa Rica 30 4:16:45  
137   53 18-39 126 Rigoberto Miranda Costa Rica 36 4:19:13  
138   42 40-49 129 Robinson Gonzalez Panamá 44 4:20:52  
139   54 18-39 34 Pablo Batista Panamá 31 4:20:58  
140   27 50+ 94 Gabriel Pitti Panamá 55 4:21:38  
141   43 40-49 111 Orlando Harris Panamá 42 4:22:16  
142   55 18-39 210 Donilo Sanabria Costa Rica 38 4:23:51  
143   44 40-49 163 Jorge Jaramillo L. Colombia 45 4:24:21  
144 F 10 18-39F 28 Lisa Larrinaga USA 33 4:25:36  
145   45 40-49 36 Francisco Perez M. Costa Rica 40 4:25:58  
146   56 18-39 295 Reynaldo Samaniego Panamá 35 4:26:43  
147   28 50+ 81 Alberto Salas Panamá 51 4:27:22  
148   57 18-39 297 Emerito Pinto Panamá 30 4:27:28  
149   29 50+ 252 Alfredo Burgos Panamá 50 4:28:22  
150   46 40-49 43 Carlos Crocamo Panamá 46 4:30:04  

 

151   47 40-49 203 Gonzalo Guadamuz Costa Rica 41 4:31:07  
152   48 40-49 234 Verny Cerdas N. Costa Rica 49 4:31:10  
153   49 40-49 108 Omar Tuñon Panamá 48 4:32:13  
154   30 50+ 197 Jose Maria Brenes S. Costa Rica 68 4:32:28  
155   50 40-49 46 Julia Isabel Sirera Panamá 46 4:34:15 $150
156   31 50+ 71 Jose Gomez Panamá 50 4:35:22  
157   58 18-39 187 Ricardo Caballero Panamá 36 4:35:43  
158   32 50+ 160 Daniel Alveo Panamá 52 4:36:40  
159   33 50+ 102 Lionel Jimenez Panamá 63 4:38:28  
160 F 9 40-49F 257 Yira Perez Panamá 47 4:38:38 $100
161   59 18-39 45 Elieser Quintero Panamá 31 4:39:37  
162   51 40-49 255 Jose Gabriel Cuervo M. Panamá 49 4:39:42  
163   60 18-39 158 Jorge Carmona Costa Rica 37 4:40:00  
164   61 18-39 183 Jorge Gonzalez Panamá 25 4:41:10  
165   62 18-39 97 Ivan Silvera Panamá 36 4:41:55  
166       267 Desconocido     4:42:49  
167  

11

18-39F 36 Margaret Von Saenger Panama

     36

4:42:58 $100
168   63 18-39 165 Eduardo Ferguson Panamá 33 4:43:01  
169   34 50+ 50 Ricardo Cupas Panamá 50 4:45:49  
170   35 50+ 264 Agustin Zuñiga Panamá

56

4:45:58  
171   64 18-39 42 Juan Carlos Vergara Panamá 36 4:46:13  
172   65 18-39 166 Edwin Duarte Panamá 35 4:48:15  
173 F 12 18-39F 184 Jesthanya Espino Panamá 28 4:48:58  
174   52 40-49 54 Vasco Gernado Panamá 46 4:49:10  
175   53 40-49 89 Armando Lopez Nicaragua 47 4:49:15  
176   66 18-39 118 Gabriel Fernandez Panamá 29 4:52:10  
177   67 18-39 186 Federico Bravo Panamá 35 4:52:28  
178 F 13 18-39F 115 Lisa Parsell USA 25 4:53:38  
179   36 50+ 59 Luis Abadia Panamá 51 4:53:49  
180   68 18-39 152 Obando Valverde Costa Rica 36 4:55:49  
181   69 18-39 63 Franklin Torrero Panamá 39 4:57:37  
182   54 40-49 41 Fernando Toledo Panamá 41 4:57:55  
183   55 40-49 145 Graciano Cruz Panamá 42 4:59:22  
184   37 50+ 231 Carlos Garcia Costa Rica 56 4:59:25  
185   38 50+ 53 Jose Maria Gonzalez Panamá 50 5:00:53  
186   39 50+ 235 Gregorio Miro Panamá 52 5:02:02  
187   56 40-49 104 Eduardo Barria Panamá 46 5:02:49  
188   57 40-49 225 Luis Carlos Madrid Panamá 41 5:05:37  
189   70 18-39 207 Roberto Zauner Panamá 35 5:05:58  
190   40 50+ 40 Jorge Romero Panamá 65 5:07:21  
191   41 50+ 31 Edwin Goening Alemania 54 5:08:13  
192 F 10 40-49F 105 Ramona Samudio USA 41 5:08:37  
193   71 18-39 173 Jorge Beck Panamá 39 5:08:40  
194   72 18-39 256 Carlos Austin Panamá 32 5:10:10  
195   42 50+ 122 Ronan Molina Costa Rica 51 5:10:13  
196   73 18-39 263 Eraclio Bernal Perez Panamá 27 5:10:34  
197       259 Edwin Guevara Panamá 14 5:10:37  
198   58 40-49 142 Enrique Ramirez R. Costa Rica 45 5:11:31  
199   43 50+ 82 Sebastian Concepcion Panamá 50 5:12:01  
200   74 18-39 62 Victor Perez De Leon Panamá 34 5:12:28  

 

201 F 11 40-49F 236 Damaris Mata Gamboa Costa Rica 42 5:15:28  
202   59 40-49 219 Ildeman Guevara Panamá 47 5:16:10  
203   43 50+ 47 Edgardo Vergara Panamá 54 5:16:13  
204 F 13 18-39F 157 Belkis Muñoz Costa Rica 34 5:16:32  
205   44 50+ 72 Humberto Villareal Panamá 53 5:20:58  
206   45 50+ 24 Johnny Santamaria Panamá 50 5:22:10  
207   46 50+ 78 Leovigildo Castillo Panamá 50 5:23:00  
208   75 18-39 251 Silvestre Gonzalez Panamá 26 5:24:55  
209   60 40-49 121 Rolando Trujillo Panamá 41 5:29:53  
210   47 50+ 38 Lucas Verzbolovskis Panamá 55 5:29:55  
211   76 18-39 296 Roberto Rodriguez Panamá 25 5:30:37  
212   61 40-49 106 Alfonso Ardines Panamá 47 5:33:10  
213   62 40-49 293 Jose Barria Rudas Panamá 40 5:35:52  
214   63 40-49 209 Clemente Forero Panamá 44 5:44:43  
215   48 50+ 176 Egnes I. Sanchez Panamá 60 5:47:16  
216   49 50+ 199 Victor Manuel Valerin Costa Rica 52 5:47:34  
217   64 40-49 73 Cecilio Mateo G. Panamá 41 5:48:53  
218   65 40-49 243 Victor Hugo Moya S. Costa Rica 44 5:49:19  
219 F 12 40-49F 244 Nunila Morales C. Costa Rica 42 5:49:22  
220   66 40-49 67 D'Jemil Garcia Panamá 40 5:51:57  
221   77 18-39 52 Reinmar Tejeira Panamá 39 5:52:21  
222 F 2 50+F 178 Teresa Arias Panamá 53 6:13:10 $100
                 
 
                                               SILLA DE RUEDAS      
1   1 SR 213 Oscar A. Alvarenga El Salvador 23 2:40:52
2   2 SR 181 Franklin Sanchez Panamá 30 3:05:43
3   3 SR 180 Juan Camaño Panamá 40 3:16:08
4   4 SR 90 Jose A. Vanegas Nicaragua 45 3:16:52
5   5 SR 194 Edgar Solano Costa Rica 40 3:24:43